sensor_id;sensor_type;location;lat;lon;timestamp;P1;durP1;ratioP1;P2;durP2;ratioP2
24619;SDS011;12763;55.802;37.404;2023-04-23T00:01:15;27.60;;;13.93;;
24619;SDS011;12763;55.802;37.404;2023-04-23T00:03:42;29.25;;;14.40;;
24619;SDS011;12763;55.802;37.404;2023-04-23T00:06:09;36.28;;;14.57;;
24619;SDS011;12763;55.802;37.404;2023-04-23T00:08:39;31.48;;;14.15;;
24619;SDS011;12763;55.802;37.404;2023-04-23T00:11:06;29.30;;;13.15;;
24619;SDS011;12763;55.802;37.404;2023-04-23T00:13:32;29.45;;;14.48;;
24619;SDS011;12763;55.802;37.404;2023-04-23T00:15:59;32.95;;;14.50;;
24619;SDS011;12763;55.802;37.404;2023-04-23T00:18:25;25.65;;;13.65;;
24619;SDS011;12763;55.802;37.404;2023-04-23T00:20:51;36.78;;;14.73;;
24619;SDS011;12763;55.802;37.404;2023-04-23T00:23:17;29.73;;;15.00;;
24619;SDS011;12763;55.802;37.404;2023-04-23T00:25:42;27.85;;;13.75;;
24619;SDS011;12763;55.802;37.404;2023-04-23T00:28:08;28.25;;;12.95;;
24619;SDS011;12763;55.802;37.404;2023-04-23T00:30:34;23.55;;;12.25;;
24619;SDS011;12763;55.802;37.404;2023-04-23T00:33:00;27.95;;;14.30;;
24619;SDS011;12763;55.802;37.404;2023-04-23T00:35:26;31.80;;;14.73;;
24619;SDS011;12763;55.802;37.404;2023-04-23T00:37:52;27.90;;;13.77;;
24619;SDS011;12763;55.802;37.404;2023-04-23T00:40:19;29.55;;;13.68;;
24619;SDS011;12763;55.802;37.404;2023-04-23T00:42:46;33.78;;;14.07;;
24619;SDS011;12763;55.802;37.404;2023-04-23T00:45:13;34.55;;;14.25;;
24619;SDS011;12763;55.802;37.404;2023-04-23T00:47:39;27.38;;;13.90;;
24619;SDS011;12763;55.802;37.404;2023-04-23T00:50:06;28.20;;;14.57;;
24619;SDS011;12763;55.802;37.404;2023-04-23T00:52:32;32.97;;;14.05;;
24619;SDS011;12763;55.802;37.404;2023-04-23T00:54:59;30.25;;;14.63;;
24619;SDS011;12763;55.802;37.404;2023-04-23T00:57:25;36.85;;;15.20;;
24619;SDS011;12763;55.802;37.404;2023-04-23T00:59:52;33.15;;;15.02;;
24619;SDS011;12763;55.802;37.404;2023-04-23T01:02:21;44.10;;;16.15;;
24619;SDS011;12763;55.802;37.404;2023-04-23T01:04:47;31.95;;;13.52;;
24619;SDS011;12763;55.802;37.404;2023-04-23T01:07:17;33.15;;;14.32;;
24619;SDS011;12763;55.802;37.404;2023-04-23T01:09:43;32.28;;;14.73;;
24619;SDS011;12763;55.802;37.404;2023-04-23T01:12:08;33.92;;;15.40;;
24619;SDS011;12763;55.802;37.404;2023-04-23T01:14:36;33.03;;;16.70;;
24619;SDS011;12763;55.802;37.404;2023-04-23T01:17:02;34.92;;;14.10;;
24619;SDS011;12763;55.802;37.404;2023-04-23T01:19:28;30.27;;;14.85;;
24619;SDS011;12763;55.802;37.404;2023-04-23T01:21:54;30.40;;;14.40;;
24619;SDS011;12763;55.802;37.404;2023-04-23T01:24:20;30.77;;;15.43;;
24619;SDS011;12763;55.802;37.404;2023-04-23T01:26:46;38.67;;;14.32;;
24619;SDS011;12763;55.802;37.404;2023-04-23T01:29:12;24.48;;;13.23;;
24619;SDS011;12763;55.802;37.404;2023-04-23T01:31:38;30.00;;;13.45;;
24619;SDS011;12763;55.802;37.404;2023-04-23T01:34:08;30.40;;;14.38;;
24619;SDS011;12763;55.802;37.404;2023-04-23T01:36:35;27.90;;;13.98;;
24619;SDS011;12763;55.802;37.404;2023-04-23T01:39:02;29.15;;;13.38;;
24619;SDS011;12763;55.802;37.404;2023-04-23T01:41:27;27.75;;;13.45;;
24619;SDS011;12763;55.802;37.404;2023-04-23T01:43:53;29.27;;;14.25;;
24619;SDS011;12763;55.802;37.404;2023-04-23T01:46:21;26.73;;;13.52;;
24619;SDS011;12763;55.802;37.404;2023-04-23T01:48:47;25.58;;;13.50;;
24619;SDS011;12763;55.802;37.404;2023-04-23T01:51:13;28.05;;;13.48;;
24619;SDS011;12763;55.802;37.404;2023-04-23T01:53:39;26.75;;;14.05;;
24619;SDS011;12763;55.802;37.404;2023-04-23T01:56:06;28.67;;;13.57;;
24619;SDS011;12763;55.802;37.404;2023-04-23T01:58:34;29.55;;;14.10;;
24619;SDS011;12763;55.802;37.404;2023-04-23T02:01:00;26.42;;;14.65;;
24619;SDS011;12763;55.802;37.404;2023-04-23T02:03:29;33.55;;;14.80;;
24619;SDS011;12763;55.802;37.404;2023-04-23T02:05:58;26.45;;;13.45;;
24619;SDS011;12763;55.802;37.404;2023-04-23T02:08:26;28.42;;;14.32;;
24619;SDS011;12763;55.802;37.404;2023-04-23T02:10:52;27.48;;;13.15;;
24619;SDS011;12763;55.802;37.404;2023-04-23T02:13:18;32.03;;;14.35;;
24619;SDS011;12763;55.802;37.404;2023-04-23T02:15:44;24.90;;;13.80;;
24619;SDS011;12763;55.802;37.404;2023-04-23T02:18:12;22.75;;;12.27;;
24619;SDS011;12763;55.802;37.404;2023-04-23T02:20:38;30.23;;;15.00;;
24619;SDS011;12763;55.802;37.404;2023-04-23T02:23:06;27.88;;;15.05;;
24619;SDS011;12763;55.802;37.404;2023-04-23T02:25:32;29.20;;;15.80;;
24619;SDS011;12763;55.802;37.404;2023-04-23T02:27:59;24.17;;;12.60;;
24619;SDS011;12763;55.802;37.404;2023-04-23T02:30:29;30.48;;;15.70;;
24619;SDS011;12763;55.802;37.404;2023-04-23T02:32:55;26.45;;;14.95;;
24619;SDS011;12763;55.802;37.404;2023-04-23T02:35:21;25.52;;;14.75;;
24619;SDS011;12763;55.802;37.404;2023-04-23T02:37:49;27.52;;;14.80;;
24619;SDS011;12763;55.802;37.404;2023-04-23T02:40:15;27.67;;;14.45;;
24619;SDS011;12763;55.802;37.404;2023-04-23T02:42:41;26.23;;;14.43;;
24619;SDS011;12763;55.802;37.404;2023-04-23T02:45:07;29.55;;;13.90;;
24619;SDS011;12763;55.802;37.404;2023-04-23T02:47:33;36.60;;;14.65;;
24619;SDS011;12763;55.802;37.404;2023-04-23T02:49:59;28.90;;;14.43;;
24619;SDS011;12763;55.802;37.404;2023-04-23T02:52:29;34.08;;;15.40;;
24619;SDS011;12763;55.802;37.404;2023-04-23T02:54:55;36.13;;;15.93;;
24619;SDS011;12763;55.802;37.404;2023-04-23T02:57:21;27.50;;;14.57;;
24619;SDS011;12763;55.802;37.404;2023-04-23T02:59:48;28.80;;;15.07;;
24619;SDS011;12763;55.802;37.404;2023-04-23T03:02:17;31.70;;;15.95;;
24619;SDS011;12763;55.802;37.404;2023-04-23T03:04:43;38.47;;;15.18;;
24619;SDS011;12763;55.802;37.404;2023-04-23T03:07:09;26.13;;;14.52;;
24619;SDS011;12763;55.802;37.404;2023-04-23T03:09:38;24.88;;;12.93;;
24619;SDS011;12763;55.802;37.404;2023-04-23T03:12:04;30.58;;;15.55;;
24619;SDS011;12763;55.802;37.404;2023-04-23T03:14:30;30.50;;;14.52;;
24619;SDS011;12763;55.802;37.404;2023-04-23T03:16:56;26.15;;;12.98;;
24619;SDS011;12763;55.802;37.404;2023-04-23T03:19:23;28.50;;;13.57;;
24619;SDS011;12763;55.802;37.404;2023-04-23T03:21:49;26.15;;;13.35;;
24619;SDS011;12763;55.802;37.404;2023-04-23T03:24:15;28.60;;;13.93;;
24619;SDS011;12763;55.802;37.404;2023-04-23T03:26:41;25.73;;;12.55;;
24619;SDS011;12763;55.802;37.404;2023-04-23T03:29:07;25.73;;;13.55;;
24619;SDS011;12763;55.802;37.404;2023-04-23T03:31:35;26.58;;;12.75;;
24619;SDS011;12763;55.802;37.404;2023-04-23T03:34:02;24.48;;;12.13;;
24619;SDS011;12763;55.802;37.404;2023-04-23T03:36:31;25.52;;;12.32;;
24619;SDS011;12763;55.802;37.404;2023-04-23T03:38:58;22.00;;;13.02;;
24619;SDS011;12763;55.802;37.404;2023-04-23T03:41:28;19.05;;;11.18;;
24619;SDS011;12763;55.802;37.404;2023-04-23T03:43:54;26.70;;;12.65;;
24619;SDS011;12763;55.802;37.404;2023-04-23T03:46:36;24.60;;;11.20;;
24619;SDS011;12763;55.802;37.404;2023-04-23T03:49:02;23.30;;;11.75;;
24619;SDS011;12763;55.802;37.404;2023-04-23T03:51:28;25.27;;;10.80;;
24619;SDS011;12763;55.802;37.404;2023-04-23T03:53:54;18.02;;;11.10;;
24619;SDS011;12763;55.802;37.404;2023-04-23T03:56:33;26.30;;;12.63;;
24619;SDS011;12763;55.802;37.404;2023-04-23T03:59:25;30.95;;;10.02;;
24619;SDS011;12763;55.802;37.404;2023-04-23T04:01:54;25.63;;;12.60;;
24619;SDS011;12763;55.802;37.404;2023-04-23T04:04:19;24.25;;;11.20;;
24619;SDS011;12763;55.802;37.404;2023-04-23T04:06:47;17.73;;;9.38;;
24619;SDS011;12763;55.802;37.404;2023-04-23T04:09:13;24.45;;;11.38;;
24619;SDS011;12763;55.802;37.404;2023-04-23T04:11:38;19.35;;;10.30;;
24619;SDS011;12763;55.802;37.404;2023-04-23T04:14:05;27.60;;;10.60;;
24619;SDS011;12763;55.802;37.404;2023-04-23T04:16:31;21.20;;;10.80;;
24619;SDS011;12763;55.802;37.404;2023-04-23T04:18:57;25.45;;;9.95;;
24619;SDS011;12763;55.802;37.404;2023-04-23T04:21:23;21.90;;;10.35;;
24619;SDS011;12763;55.802;37.404;2023-04-23T04:23:49;22.35;;;9.68;;
24619;SDS011;12763;55.802;37.404;2023-04-23T04:26:15;18.85;;;9.07;;
24619;SDS011;12763;55.802;37.404;2023-04-23T04:28:41;22.50;;;10.73;;
24619;SDS011;12763;55.802;37.404;2023-04-23T04:31:06;20.05;;;9.38;;
24619;SDS011;12763;55.802;37.404;2023-04-23T04:33:34;21.15;;;11.02;;
24619;SDS011;12763;55.802;37.404;2023-04-23T04:36:00;18.85;;;10.73;;
24619;SDS011;12763;55.802;37.404;2023-04-23T04:38:27;20.20;;;9.57;;
24619;SDS011;12763;55.802;37.404;2023-04-23T04:40:54;17.08;;;9.60;;
24619;SDS011;12763;55.802;37.404;2023-04-23T04:43:24;16.67;;;9.30;;
24619;SDS011;12763;55.802;37.404;2023-04-23T04:45:51;19.48;;;9.80;;
24619;SDS011;12763;55.802;37.404;2023-04-23T04:48:18;19.92;;;9.93;;
24619;SDS011;12763;55.802;37.404;2023-04-23T04:50:44;20.70;;;9.45;;
24619;SDS011;12763;55.802;37.404;2023-04-23T04:53:11;15.52;;;8.05;;
24619;SDS011;12763;55.802;37.404;2023-04-23T04:55:37;26.00;;;10.02;;
24619;SDS011;12763;55.802;37.404;2023-04-23T04:58:03;18.50;;;9.52;;
24619;SDS011;12763;55.802;37.404;2023-04-23T05:00:29;19.42;;;9.85;;
24619;SDS011;12763;55.802;37.404;2023-04-23T05:02:58;21.60;;;10.27;;
24619;SDS011;12763;55.802;37.404;2023-04-23T05:05:24;18.10;;;9.20;;
24619;SDS011;12763;55.802;37.404;2023-04-23T05:07:51;17.83;;;9.10;;
24619;SDS011;12763;55.802;37.404;2023-04-23T05:10:23;22.83;;;10.10;;
24619;SDS011;12763;55.802;37.404;2023-04-23T05:12:50;18.23;;;8.77;;
24619;SDS011;12763;55.802;37.404;2023-04-23T05:15:16;14.55;;;7.80;;
24619;SDS011;12763;55.802;37.404;2023-04-23T05:17:42;19.70;;;9.25;;
24619;SDS011;12763;55.802;37.404;2023-04-23T05:20:08;17.85;;;7.82;;
24619;SDS011;12763;55.802;37.404;2023-04-23T05:22:36;13.38;;;8.02;;
24619;SDS011;12763;55.802;37.404;2023-04-23T05:25:03;16.17;;;8.38;;
24619;SDS011;12763;55.802;37.404;2023-04-23T05:27:30;17.52;;;8.43;;
24619;SDS011;12763;55.802;37.404;2023-04-23T05:29:56;20.33;;;9.20;;
24619;SDS011;12763;55.802;37.404;2023-04-23T05:32:21;16.98;;;8.20;;
24619;SDS011;12763;55.802;37.404;2023-04-23T05:34:48;17.20;;;8.88;;
24619;SDS011;12763;55.802;37.404;2023-04-23T05:37:13;25.13;;;10.00;;
24619;SDS011;12763;55.802;37.404;2023-04-23T05:39:39;20.30;;;8.88;;
24619;SDS011;12763;55.802;37.404;2023-04-23T05:42:05;21.80;;;10.85;;
24619;SDS011;12763;55.802;37.404;2023-04-23T05:44:31;16.92;;;9.40;;
24619;SDS011;12763;55.802;37.404;2023-04-23T05:46:56;15.02;;;8.73;;
24619;SDS011;12763;55.802;37.404;2023-04-23T05:49:22;23.33;;;8.90;;
24619;SDS011;12763;55.802;37.404;2023-04-23T05:51:48;15.15;;;8.32;;
24619;SDS011;12763;55.802;37.404;2023-04-23T05:54:14;19.77;;;9.43;;
24619;SDS011;12763;55.802;37.404;2023-04-23T05:56:40;16.55;;;9.13;;
24619;SDS011;12763;55.802;37.404;2023-04-23T05:59:06;14.23;;;8.20;;
24619;SDS011;12763;55.802;37.404;2023-04-23T06:01:32;17.27;;;8.48;;
24619;SDS011;12763;55.802;37.404;2023-04-23T06:03:57;14.07;;;9.15;;
24619;SDS011;12763;55.802;37.404;2023-04-23T06:06:24;18.30;;;9.20;;
24619;SDS011;12763;55.802;37.404;2023-04-23T06:08:50;14.32;;;8.40;;
24619;SDS011;12763;55.802;37.404;2023-04-23T06:11:16;18.77;;;9.30;;
24619;SDS011;12763;55.802;37.404;2023-04-23T06:13:42;21.40;;;10.90;;
24619;SDS011;12763;55.802;37.404;2023-04-23T06:16:08;32.42;;;11.35;;
24619;SDS011;12763;55.802;37.404;2023-04-23T06:18:35;20.02;;;10.77;;
24619;SDS011;12763;55.802;37.404;2023-04-23T06:21:02;17.15;;;10.02;;
24619;SDS011;12763;55.802;37.404;2023-04-23T06:23:29;20.15;;;9.68;;
24619;SDS011;12763;55.802;37.404;2023-04-23T06:25:55;16.40;;;9.65;;
24619;SDS011;12763;55.802;37.404;2023-04-23T06:28:21;12.63;;;7.93;;
24619;SDS011;12763;55.802;37.404;2023-04-23T06:31:09;13.65;;;8.40;;
24619;SDS011;12763;55.802;37.404;2023-04-23T06:33:37;14.65;;;8.00;;
24619;SDS011;12763;55.802;37.404;2023-04-23T06:36:03;13.05;;;8.20;;
24619;SDS011;12763;55.802;37.404;2023-04-23T06:38:29;19.05;;;9.32;;
24619;SDS011;12763;55.802;37.404;2023-04-23T06:40:56;17.27;;;8.38;;
24619;SDS011;12763;55.802;37.404;2023-04-23T06:43:23;18.83;;;8.98;;
24619;SDS011;12763;55.802;37.404;2023-04-23T06:46:07;14.18;;;8.25;;
24619;SDS011;12763;55.802;37.404;2023-04-23T06:48:33;18.27;;;9.13;;
24619;SDS011;12763;55.802;37.404;2023-04-23T06:50:59;22.75;;;9.27;;
24619;SDS011;12763;55.802;37.404;2023-04-23T06:53:25;18.35;;;9.20;;
24619;SDS011;12763;55.802;37.404;2023-04-23T06:55:51;12.73;;;7.35;;
24619;SDS011;12763;55.802;37.404;2023-04-23T06:58:16;20.60;;;7.35;;
24619;SDS011;12763;55.802;37.404;2023-04-23T07:00:42;23.80;;;8.10;;
24619;SDS011;12763;55.802;37.404;2023-04-23T07:03:09;11.35;;;6.95;;
24619;SDS011;12763;55.802;37.404;2023-04-23T07:05:35;11.95;;;6.95;;
24619;SDS011;12763;55.802;37.404;2023-04-23T07:08:01;11.00;;;7.35;;
24619;SDS011;12763;55.802;37.404;2023-04-23T07:10:27;16.15;;;7.80;;
24619;SDS011;12763;55.802;37.404;2023-04-23T07:12:53;13.73;;;7.65;;
24619;SDS011;12763;55.802;37.404;2023-04-23T07:15:19;11.95;;;7.07;;
24619;SDS011;12763;55.802;37.404;2023-04-23T07:17:44;15.52;;;7.72;;
24619;SDS011;12763;55.802;37.404;2023-04-23T07:20:10;15.15;;;7.60;;
24619;SDS011;12763;55.802;37.404;2023-04-23T07:22:36;15.18;;;6.45;;
24619;SDS011;12763;55.802;37.404;2023-04-23T07:25:02;13.40;;;6.57;;
24619;SDS011;12763;55.802;37.404;2023-04-23T07:27:31;14.10;;;7.43;;
24619;SDS011;12763;55.802;37.404;2023-04-23T07:29:57;11.27;;;7.70;;
24619;SDS011;12763;55.802;37.404;2023-04-23T07:32:22;13.32;;;6.85;;
24619;SDS011;12763;55.802;37.404;2023-04-23T07:34:53;13.85;;;7.25;;
24619;SDS011;12763;55.802;37.404;2023-04-23T07:37:20;10.98;;;6.68;;
24619;SDS011;12763;55.802;37.404;2023-04-23T07:39:46;13.43;;;6.68;;
24619;SDS011;12763;55.802;37.404;2023-04-23T07:42:13;16.60;;;5.93;;
24619;SDS011;12763;55.802;37.404;2023-04-23T07:44:39;10.40;;;6.55;;
24619;SDS011;12763;55.802;37.404;2023-04-23T07:47:05;11.10;;;5.93;;
24619;SDS011;12763;55.802;37.404;2023-04-23T07:49:31;14.38;;;7.15;;
24619;SDS011;12763;55.802;37.404;2023-04-23T07:51:56;14.32;;;7.15;;
24619;SDS011;12763;55.802;37.404;2023-04-23T07:54:22;23.20;;;7.32;;
24619;SDS011;12763;55.802;37.404;2023-04-23T07:56:48;13.50;;;5.75;;
24619;SDS011;12763;55.802;37.404;2023-04-23T07:59:13;9.48;;;5.35;;
24619;SDS011;12763;55.802;37.404;2023-04-23T08:01:40;10.57;;;5.07;;
24619;SDS011;12763;55.802;37.404;2023-04-23T08:04:06;7.43;;;4.13;;
24619;SDS011;12763;55.802;37.404;2023-04-23T08:06:35;4.55;;;2.00;;
24619;SDS011;12763;55.802;37.404;2023-04-23T08:09:00;4.85;;;2.78;;
24619;SDS011;12763;55.802;37.404;2023-04-23T08:11:31;8.13;;;3.13;;
24619;SDS011;12763;55.802;37.404;2023-04-23T08:13:57;8.43;;;3.03;;
24619;SDS011;12763;55.802;37.404;2023-04-23T08:16:24;9.02;;;3.10;;
24619;SDS011;12763;55.802;37.404;2023-04-23T08:18:50;6.90;;;3.58;;
24619;SDS011;12763;55.802;37.404;2023-04-23T08:21:16;2.88;;;2.00;;
24619;SDS011;12763;55.802;37.404;2023-04-23T08:23:42;2.35;;;1.50;;
24619;SDS011;12763;55.802;37.404;2023-04-23T08:26:08;6.50;;;2.33;;
24619;SDS011;12763;55.802;37.404;2023-04-23T08:28:34;1.98;;;1.52;;
24619;SDS011;12763;55.802;37.404;2023-04-23T08:31:00;4.90;;;1.70;;
24619;SDS011;12763;55.802;37.404;2023-04-23T08:33:26;2.45;;;1.70;;
24619;SDS011;12763;55.802;37.404;2023-04-23T08:35:52;3.75;;;1.90;;
24619;SDS011;12763;55.802;37.404;2023-04-23T08:38:18;2.15;;;1.60;;
24619;SDS011;12763;55.802;37.404;2023-04-23T08:40:44;3.33;;;1.45;;
24619;SDS011;12763;55.802;37.404;2023-04-23T08:43:18;1.85;;;1.20;;
24619;SDS011;12763;55.802;37.404;2023-04-23T08:45:45;2.42;;;1.20;;
24619;SDS011;12763;55.802;37.404;2023-04-23T08:48:12;2.05;;;1.33;;
24619;SDS011;12763;55.802;37.404;2023-04-23T08:50:41;6.72;;;2.25;;
24619;SDS011;12763;55.802;37.404;2023-04-23T08:53:08;3.13;;;1.65;;
24619;SDS011;12763;55.802;37.404;2023-04-23T08:55:34;4.57;;;1.50;;
24619;SDS011;12763;55.802;37.404;2023-04-23T08:58:01;3.28;;;1.98;;
24619;SDS011;12763;55.802;37.404;2023-04-23T09:00:28;3.40;;;1.70;;
24619;SDS011;12763;55.802;37.404;2023-04-23T09:02:54;2.17;;;1.65;;
24619;SDS011;12763;55.802;37.404;2023-04-23T09:05:21;7.43;;;2.00;;
24619;SDS011;12763;55.802;37.404;2023-04-23T09:07:47;5.57;;;1.80;;
24619;SDS011;12763;55.802;37.404;2023-04-23T09:10:12;4.68;;;1.65;;
24619;SDS011;12763;55.802;37.404;2023-04-23T09:12:40;2.33;;;1.95;;
24619;SDS011;12763;55.802;37.404;2023-04-23T09:15:07;4.05;;;1.70;;
24619;SDS011;12763;55.802;37.404;2023-04-23T09:17:38;4.63;;;1.60;;
24619;SDS011;12763;55.802;37.404;2023-04-23T09:20:08;6.30;;;1.60;;
24619;SDS011;12763;55.802;37.404;2023-04-23T09:25:12;3.70;;;1.73;;
24619;SDS011;12763;55.802;37.404;2023-04-23T09:27:39;3.53;;;1.48;;
24619;SDS011;12763;55.802;37.404;2023-04-23T09:30:06;3.35;;;1.77;;
24619;SDS011;12763;55.802;37.404;2023-04-23T09:32:36;3.72;;;1.80;;
24619;SDS011;12763;55.802;37.404;2023-04-23T09:35:06;3.33;;;1.98;;
24619;SDS011;12763;55.802;37.404;2023-04-23T09:37:33;5.65;;;1.75;;
24619;SDS011;12763;55.802;37.404;2023-04-23T09:40:03;6.45;;;2.08;;
24619;SDS011;12763;55.802;37.404;2023-04-23T09:42:34;8.27;;;1.98;;
24619;SDS011;12763;55.802;37.404;2023-04-23T09:45:03;3.30;;;1.73;;
24619;SDS011;12763;55.802;37.404;2023-04-23T09:47:32;2.83;;;1.50;;
24619;SDS011;12763;55.802;37.404;2023-04-23T09:49:59;3.53;;;1.83;;
24619;SDS011;12763;55.802;37.404;2023-04-23T09:52:27;4.13;;;1.50;;
24619;SDS011;12763;55.802;37.404;2023-04-23T09:54:56;13.68;;;1.85;;
24619;SDS011;12763;55.802;37.404;2023-04-23T09:57:24;3.38;;;1.73;;
24619;SDS011;12763;55.802;37.404;2023-04-23T09:59:50;2.65;;;1.63;;
24619;SDS011;12763;55.802;37.404;2023-04-23T10:02:16;6.85;;;2.00;;
24619;SDS011;12763;55.802;37.404;2023-04-23T10:04:43;2.70;;;1.80;;
24619;SDS011;12763;55.802;37.404;2023-04-23T10:07:09;5.00;;;1.75;;
24619;SDS011;12763;55.802;37.404;2023-04-23T10:09:39;5.22;;;1.70;;
24619;SDS011;12763;55.802;37.404;2023-04-23T10:12:06;2.78;;;1.63;;
24619;SDS011;12763;55.802;37.404;2023-04-23T10:14:33;2.55;;;1.42;;
24619;SDS011;12763;55.802;37.404;2023-04-23T10:17:00;4.47;;;1.90;;
24619;SDS011;12763;55.802;37.404;2023-04-23T10:19:28;3.47;;;1.33;;
24619;SDS011;12763;55.802;37.404;2023-04-23T10:21:55;2.72;;;1.38;;
24619;SDS011;12763;55.802;37.404;2023-04-23T10:24:27;6.68;;;1.65;;
24619;SDS011;12763;55.802;37.404;2023-04-23T10:26:56;3.83;;;1.88;;
24619;SDS011;12763;55.802;37.404;2023-04-23T10:29:34;3.83;;;1.70;;
24619;SDS011;12763;55.802;37.404;2023-04-23T10:32:04;4.30;;;1.83;;
24619;SDS011;12763;55.802;37.404;2023-04-23T10:34:31;2.78;;;1.70;;
24619;SDS011;12763;55.802;37.404;2023-04-23T10:36:58;2.50;;;1.50;;
24619;SDS011;12763;55.802;37.404;2023-04-23T10:39:32;2.80;;;1.73;;
24619;SDS011;12763;55.802;37.404;2023-04-23T10:42:00;6.15;;;1.55;;
24619;SDS011;12763;55.802;37.404;2023-04-23T10:44:36;2.10;;;1.55;;
24619;SDS011;12763;55.802;37.404;2023-04-23T10:47:03;4.88;;;1.85;;
24619;SDS011;12763;55.802;37.404;2023-04-23T10:49:31;5.50;;;1.65;;
24619;SDS011;12763;55.802;37.404;2023-04-23T10:52:16;3.10;;;1.85;;
24619;SDS011;12763;55.802;37.404;2023-04-23T10:54:47;7.07;;;1.80;;
24619;SDS011;12763;55.802;37.404;2023-04-23T10:57:14;6.30;;;1.83;;
24619;SDS011;12763;55.802;37.404;2023-04-23T10:59:49;4.75;;;1.50;;
24619;SDS011;12763;55.802;37.404;2023-04-23T11:02:17;2.25;;;1.70;;
24619;SDS011;12763;55.802;37.404;2023-04-23T11:04:55;3.10;;;1.70;;
24619;SDS011;12763;55.802;37.404;2023-04-23T11:07:29;2.40;;;1.50;;
24619;SDS011;12763;55.802;37.404;2023-04-23T11:10:15;2.80;;;1.75;;
24619;SDS011;12763;55.802;37.404;2023-04-23T11:12:40;4.85;;;1.90;;
24619;SDS011;12763;55.802;37.404;2023-04-23T11:15:09;5.15;;;1.98;;
24619;SDS011;12763;55.802;37.404;2023-04-23T11:20:17;3.22;;;1.98;;
24619;SDS011;12763;55.802;37.404;2023-04-23T11:22:45;3.45;;;2.00;;
24619;SDS011;12763;55.802;37.404;2023-04-23T11:25:14;7.90;;;2.10;;
24619;SDS011;12763;55.802;37.404;2023-04-23T11:27:46;4.60;;;2.45;;
24619;SDS011;12763;55.802;37.404;2023-04-23T11:32:40;5.90;;;1.80;;
24619;SDS011;12763;55.802;37.404;2023-04-23T11:35:11;3.35;;;1.73;;
24619;SDS011;12763;55.802;37.404;2023-04-23T11:37:41;3.13;;;1.90;;
24619;SDS011;12763;55.802;37.404;2023-04-23T11:40:09;3.60;;;2.20;;
24619;SDS011;12763;55.802;37.404;2023-04-23T11:42:46;5.28;;;1.85;;
24619;SDS011;12763;55.802;37.404;2023-04-23T11:45:22;6.25;;;2.00;;
24619;SDS011;12763;55.802;37.404;2023-04-23T11:47:50;3.30;;;2.13;;
24619;SDS011;12763;55.802;37.404;2023-04-23T11:50:21;6.53;;;2.42;;
24619;SDS011;12763;55.802;37.404;2023-04-23T11:52:48;3.20;;;1.92;;
24619;SDS011;12763;55.802;37.404;2023-04-23T11:55:14;3.67;;;2.25;;
24619;SDS011;12763;55.802;37.404;2023-04-23T11:57:41;3.28;;;2.03;;
24619;SDS011;12763;55.802;37.404;2023-04-23T12:00:12;2.92;;;1.80;;
24619;SDS011;12763;55.802;37.404;2023-04-23T12:02:53;5.28;;;1.98;;
24619;SDS011;12763;55.802;37.404;2023-04-23T12:05:33;7.03;;;2.05;;
24619;SDS011;12763;55.802;37.404;2023-04-23T12:08:11;3.85;;;2.15;;
24619;SDS011;12763;55.802;37.404;2023-04-23T12:10:41;4.68;;;2.00;;
24619;SDS011;12763;55.802;37.404;2023-04-23T12:13:17;3.20;;;2.10;;
24619;SDS011;12763;55.802;37.404;2023-04-23T12:15:44;7.40;;;2.00;;
24619;SDS011;12763;55.802;37.404;2023-04-23T12:18:17;4.88;;;1.70;;
24619;SDS011;12763;55.802;37.404;2023-04-23T12:20:43;6.80;;;2.47;;
24619;SDS011;12763;55.802;37.404;2023-04-23T12:23:10;3.45;;;2.50;;
24619;SDS011;12763;55.802;37.404;2023-04-23T12:25:38;6.60;;;2.40;;
24619;SDS011;12763;55.802;37.404;2023-04-23T12:28:05;4.55;;;2.20;;
24619;SDS011;12763;55.802;37.404;2023-04-23T12:30:32;6.30;;;2.45;;
24619;SDS011;12763;55.802;37.404;2023-04-23T12:32:59;5.03;;;1.92;;
24619;SDS011;12763;55.802;37.404;2023-04-23T12:35:38;5.63;;;2.50;;
24619;SDS011;12763;55.802;37.404;2023-04-23T12:38:24;3.10;;;1.85;;
24619;SDS011;12763;55.802;37.404;2023-04-23T12:40:53;3.47;;;2.03;;
24619;SDS011;12763;55.802;37.404;2023-04-23T12:43:20;3.20;;;1.90;;
24619;SDS011;12763;55.802;37.404;2023-04-23T12:45:46;2.75;;;1.88;;
24619;SDS011;12763;55.802;37.404;2023-04-23T12:48:12;3.38;;;2.03;;
24619;SDS011;12763;55.802;37.404;2023-04-23T12:50:38;6.70;;;2.42;;
24619;SDS011;12763;55.802;37.404;2023-04-23T12:53:05;4.85;;;2.42;;
24619;SDS011;12763;55.802;37.404;2023-04-23T12:55:31;2.53;;;1.65;;
24619;SDS011;12763;55.802;37.404;2023-04-23T12:57:57;3.90;;;1.98;;
24619;SDS011;12763;55.802;37.404;2023-04-23T13:00:23;4.72;;;2.08;;
24619;SDS011;12763;55.802;37.404;2023-04-23T13:02:50;4.40;;;2.10;;
24619;SDS011;12763;55.802;37.404;2023-04-23T13:05:16;5.85;;;2.38;;
24619;SDS011;12763;55.802;37.404;2023-04-23T13:07:42;5.45;;;2.00;;
24619;SDS011;12763;55.802;37.404;2023-04-23T13:10:08;4.00;;;2.10;;
24619;SDS011;12763;55.802;37.404;2023-04-23T13:12:35;4.95;;;2.38;;
24619;SDS011;12763;55.802;37.404;2023-04-23T13:15:00;4.07;;;2.05;;
24619;SDS011;12763;55.802;37.404;2023-04-23T13:17:30;5.32;;;1.95;;
24619;SDS011;12763;55.802;37.404;2023-04-23T13:19:56;4.95;;;2.10;;
24619;SDS011;12763;55.802;37.404;2023-04-23T13:22:23;3.45;;;1.83;;
24619;SDS011;12763;55.802;37.404;2023-04-23T13:24:53;3.75;;;1.70;;
24619;SDS011;12763;55.802;37.404;2023-04-23T13:27:21;2.72;;;2.22;;
24619;SDS011;12763;55.802;37.404;2023-04-23T13:29:49;6.25;;;2.13;;
24619;SDS011;12763;55.802;37.404;2023-04-23T13:32:15;2.70;;;2.08;;
24619;SDS011;12763;55.802;37.404;2023-04-23T13:34:41;5.40;;;2.10;;
24619;SDS011;12763;55.802;37.404;2023-04-23T13:37:07;3.50;;;2.00;;
24619;SDS011;12763;55.802;37.404;2023-04-23T13:39:36;2.50;;;1.92;;
24619;SDS011;12763;55.802;37.404;2023-04-23T13:42:02;3.85;;;2.05;;
24619;SDS011;12763;55.802;37.404;2023-04-23T13:44:29;5.88;;;2.40;;
24619;SDS011;12763;55.802;37.404;2023-04-23T13:46:56;4.53;;;2.15;;
24619;SDS011;12763;55.802;37.404;2023-04-23T13:49:23;6.10;;;2.50;;
24619;SDS011;12763;55.802;37.404;2023-04-23T13:51:50;5.57;;;2.25;;
24619;SDS011;12763;55.802;37.404;2023-04-23T13:54:19;5.05;;;2.17;;
24619;SDS011;12763;55.802;37.404;2023-04-23T13:56:45;2.75;;;2.25;;
24619;SDS011;12763;55.802;37.404;2023-04-23T13:59:11;7.55;;;2.30;;
24619;SDS011;12763;55.802;37.404;2023-04-23T14:01:37;8.38;;;2.25;;
24619;SDS011;12763;55.802;37.404;2023-04-23T14:04:04;3.50;;;2.13;;
24619;SDS011;12763;55.802;37.404;2023-04-23T14:06:30;5.20;;;2.30;;
24619;SDS011;12763;55.802;37.404;2023-04-23T14:08:56;4.25;;;1.90;;
24619;SDS011;12763;55.802;37.404;2023-04-23T14:11:22;4.00;;;2.28;;
24619;SDS011;12763;55.802;37.404;2023-04-23T14:13:48;3.85;;;2.17;;
24619;SDS011;12763;55.802;37.404;2023-04-23T14:16:14;5.28;;;1.95;;
24619;SDS011;12763;55.802;37.404;2023-04-23T14:18:40;4.40;;;2.00;;
24619;SDS011;12763;55.802;37.404;2023-04-23T14:21:06;3.70;;;1.95;;
24619;SDS011;12763;55.802;37.404;2023-04-23T14:28:56;3.15;;;2.30;;
24619;SDS011;12763;55.802;37.404;2023-04-23T14:31:26;5.32;;;2.13;;
24619;SDS011;12763;55.802;37.404;2023-04-23T14:33:55;3.53;;;2.30;;
24619;SDS011;12763;55.802;37.404;2023-04-23T14:36:23;4.15;;;2.50;;
24619;SDS011;12763;55.802;37.404;2023-04-23T14:38:49;4.72;;;1.98;;